createdAt,value
2022-08-24T00:00:36.043Z,16.40
2022-08-24T00:03:03.503Z,16.50
2022-08-24T00:05:30.734Z,16.40
2022-08-24T00:07:57.991Z,16.30
2022-08-24T00:10:26.625Z,16.20
2022-08-24T00:12:53.558Z,16.10
2022-08-24T00:15:21.321Z,16.10
2022-08-24T00:17:48.305Z,16.10
2022-08-24T00:20:15.399Z,16.10
2022-08-24T00:22:42.826Z,16.10
2022-08-24T00:25:12.273Z,16.00
2022-08-24T00:27:41.973Z,16.00
2022-08-24T00:30:15.608Z,15.90
2022-08-24T00:32:44.931Z,15.80
2022-08-24T00:35:13.879Z,15.80
2022-08-24T00:37:41.746Z,15.70
2022-08-24T00:40:15.258Z,15.80
2022-08-24T00:42:42.439Z,15.80
2022-08-24T00:45:12.883Z,15.70
2022-08-24T00:47:50.551Z,15.70
2022-08-24T00:50:37.589Z,15.70
2022-08-24T00:53:12.318Z,15.50
2022-08-24T00:55:45.957Z,15.40
2022-08-24T00:58:20.543Z,15.40
2022-08-24T01:00:56.602Z,15.40
2022-08-24T01:03:24.328Z,15.40
2022-08-24T01:05:51.231Z,15.40
2022-08-24T01:08:18.306Z,15.50
2022-08-24T01:10:56.963Z,15.40
2022-08-24T01:13:25.449Z,15.40
2022-08-24T01:15:55.809Z,15.40
2022-08-24T01:18:43.894Z,15.30
2022-08-24T01:21:20.290Z,15.30
2022-08-24T01:23:52.593Z,15.30
2022-08-24T01:26:32.483Z,15.30
2022-08-24T01:29:07.381Z,15.30
2022-08-24T01:31:35.149Z,15.30
2022-08-24T01:34:02.705Z,15.30
2022-08-24T01:36:45.583Z,15.30
2022-08-24T01:39:37.852Z,15.30
2022-08-24T01:42:05.518Z,15.20
2022-08-24T01:44:34.698Z,15.10
2022-08-24T01:47:06.596Z,15.20
2022-08-24T01:49:37.831Z,15.10
2022-08-24T01:52:06.620Z,14.90
2022-08-24T01:54:34.659Z,14.90
2022-08-24T01:57:01.962Z,14.90
2022-08-24T01:59:29.494Z,14.90
2022-08-24T02:02:06.356Z,14.90
2022-08-24T02:04:35.010Z,14.80
2022-08-24T02:07:02.370Z,14.80
2022-08-24T02:09:32.848Z,14.70
2022-08-24T02:12:00.306Z,14.60
2022-08-24T02:14:29.883Z,14.60
2022-08-24T02:17:00.015Z,14.70
2022-08-24T02:19:27.370Z,14.70
2022-08-24T02:21:54.390Z,14.60
2022-08-24T02:24:21.441Z,14.60
2022-08-24T02:26:49.306Z,14.60
2022-08-24T02:29:16.548Z,14.70
2022-08-24T02:31:43.872Z,14.70
2022-08-24T02:34:10.953Z,14.60
2022-08-24T02:36:39.222Z,14.70
2022-08-24T02:39:08.180Z,14.60
2022-08-24T02:41:36.129Z,14.50
2022-08-24T02:44:03.426Z,14.60
2022-08-24T02:46:31.545Z,14.70
2022-08-24T02:49:11.219Z,14.70
2022-08-24T02:51:44.116Z,14.70
2022-08-24T02:54:14.274Z,14.70
2022-08-24T02:56:41.245Z,14.70
2022-08-24T02:59:08.275Z,14.70
2022-08-24T03:01:35.439Z,14.70
2022-08-24T03:04:02.521Z,14.60
2022-08-24T03:06:29.606Z,14.60
2022-08-24T03:08:57.044Z,14.60
2022-08-24T03:11:27.956Z,14.50
2022-08-24T03:13:59.471Z,14.60
2022-08-24T03:16:28.226Z,14.60
2022-08-24T03:18:55.285Z,14.70
2022-08-24T03:21:22.410Z,14.70
2022-08-24T03:23:49.421Z,14.60
2022-08-24T03:26:16.558Z,14.50
2022-08-24T03:28:45.138Z,14.40
2022-08-24T03:31:12.661Z,14.40
2022-08-24T03:33:39.718Z,14.50
2022-08-24T03:36:10.037Z,14.50
2022-08-24T03:38:39.505Z,14.40
2022-08-24T03:41:06.766Z,14.50
2022-08-24T03:43:46.518Z,14.60
2022-08-24T03:46:18.003Z,14.50
2022-08-24T03:48:45.417Z,14.50
2022-08-24T03:51:15.006Z,14.50
2022-08-24T03:53:43.615Z,14.50
2022-08-24T03:56:12.081Z,14.50
2022-08-24T03:58:42.071Z,14.50
2022-08-24T04:01:10.208Z,14.60
2022-08-24T04:03:40.445Z,14.60
2022-08-24T04:06:08.762Z,14.70
2022-08-24T04:08:39.562Z,14.60
2022-08-24T04:11:09.870Z,14.70
2022-08-24T04:13:36.810Z,14.60
2022-08-24T04:16:13.059Z,14.70
2022-08-24T04:18:41.816Z,14.70
2022-08-24T04:21:16.766Z,14.70
2022-08-24T04:23:47.671Z,14.70
2022-08-24T04:26:16.647Z,14.80
2022-08-24T04:29:04.434Z,14.70
2022-08-24T04:31:37.557Z,14.80
2022-08-24T04:34:05.973Z,14.80
2022-08-24T04:36:33.069Z,14.80
2022-08-24T04:39:01.195Z,14.80
2022-08-24T04:41:31.278Z,14.90
2022-08-24T04:43:59.835Z,14.90
2022-08-24T04:46:27.497Z,14.90
2022-08-24T04:48:55.287Z,14.90
2022-08-24T04:51:22.667Z,15.00
2022-08-24T04:53:50.667Z,15.10
2022-08-24T04:56:21.365Z,15.10
2022-08-24T04:58:48.552Z,15.10
2022-08-24T05:01:22.093Z,15.10
2022-08-24T05:03:54.383Z,15.30
2022-08-24T05:06:28.975Z,15.30
2022-08-24T05:08:56.113Z,15.40
2022-08-24T05:11:24.456Z,15.40
2022-08-24T05:13:56.219Z,15.40
2022-08-24T05:16:24.300Z,15.50
2022-08-24T05:18:53.695Z,15.60
2022-08-24T05:21:23.230Z,15.60
2022-08-24T05:23:50.554Z,15.70
2022-08-24T05:26:20.868Z,15.60
2022-08-24T05:28:48.134Z,15.70
2022-08-24T05:31:20.705Z,15.80
2022-08-24T05:33:52.216Z,15.90
2022-08-24T05:36:25.744Z,16.00
2022-08-24T05:38:55.099Z,15.90
2022-08-24T05:41:22.735Z,16.00
2022-08-24T05:43:49.820Z,16.00
2022-08-24T05:46:17.086Z,16.00
2022-08-24T05:48:52.585Z,16.20
2022-08-24T05:51:21.259Z,16.10
2022-08-24T05:53:48.993Z,16.20
2022-08-24T05:56:18.202Z,16.20
2022-08-24T05:58:47.850Z,16.10
2022-08-24T06:01:18.467Z,16.20
2022-08-24T06:03:45.954Z,16.20
2022-08-24T06:06:13.975Z,16.30
2022-08-24T06:08:46.191Z,16.40
2022-08-24T06:11:30.126Z,16.40
2022-08-24T06:14:08.595Z,16.60
2022-08-24T06:16:42.236Z,16.80
2022-08-24T06:19:11.184Z,16.80
2022-08-24T06:21:38.492Z,16.70
2022-08-24T06:24:07.204Z,16.70
2022-08-24T06:26:53.391Z,16.90
2022-08-24T06:29:21.373Z,17.10
2022-08-24T06:31:54.460Z,17.70
2022-08-24T06:34:26.339Z,17.50
2022-08-24T06:36:53.834Z,17.80
2022-08-24T06:39:21.193Z,17.80
2022-08-24T06:41:48.286Z,17.70
2022-08-24T06:44:15.274Z,17.90
2022-08-24T06:46:42.448Z,18.00
2022-08-24T06:49:09.650Z,17.80
2022-08-24T06:51:36.652Z,18.00
2022-08-24T06:54:03.838Z,18.50
2022-08-24T06:56:30.941Z,18.70
2022-08-24T06:59:03.571Z,19.20
2022-08-24T07:01:30.959Z,18.50
2022-08-24T07:03:58.316Z,18.70
2022-08-24T07:06:26.512Z,18.50
2022-08-24T07:08:56.568Z,18.00
2022-08-24T07:11:25.173Z,17.80
2022-08-24T07:13:52.211Z,17.60
2022-08-24T07:16:20.581Z,17.70
2022-08-24T07:18:50.260Z,17.50
2022-08-24T07:21:19.954Z,17.80
2022-08-24T07:23:54.480Z,17.90
2022-08-24T07:26:23.321Z,17.90
2022-08-24T07:32:06.682Z,17.80
2022-08-24T07:34:33.739Z,18.00
2022-08-24T07:37:00.651Z,18.10
2022-08-24T07:39:28.319Z,18.00
2022-08-24T07:44:42.606Z,18.20
2022-08-24T07:47:34.247Z,18.50
2022-08-24T07:49:56.857Z,18.30
2022-08-24T07:52:23.986Z,18.40
2022-08-24T07:54:50.925Z,18.80
2022-08-24T07:57:18.235Z,18.80
2022-08-24T07:59:47.291Z,18.50
2022-08-24T08:02:14.881Z,18.50
2022-08-24T08:04:42.205Z,18.90
2022-08-24T08:07:09.628Z,19.10
2022-08-24T08:09:40.101Z,19.20
2022-08-24T08:12:07.272Z,18.90
2022-08-24T08:14:34.317Z,18.30
2022-08-24T08:17:01.356Z,18.20
2022-08-24T08:19:28.661Z,18.60
2022-08-24T08:22:14.517Z,19.00
2022-08-24T08:24:45.125Z,19.30
2022-08-24T08:27:13.091Z,19.10
2022-08-24T08:29:41.966Z,19.10
2022-08-24T08:32:12.158Z,19.30
2022-08-24T08:34:39.141Z,19.20
2022-08-24T08:37:06.413Z,19.40
2022-08-24T08:39:33.576Z,19.80
2022-08-24T08:42:15.234Z,20.00
2022-08-24T08:45:07.449Z,19.90
2022-08-24T08:50:40.693Z,20.40
2022-08-24T08:53:31.353Z,20.90
2022-08-24T08:56:03.817Z,20.00
2022-08-24T08:59:07.779Z,20.40
2022-08-24T09:02:15.310Z,20.70
2022-08-24T09:04:51.884Z,20.50
2022-08-24T09:07:51.718Z,20.60
2022-08-24T09:10:45.186Z,20.70
2022-08-24T09:13:53.813Z,20.60
2022-08-24T09:17:20.657Z,20.90
2022-08-24T09:20:18.038Z,21.40
2022-08-24T09:22:50.089Z,21.40
2022-08-24T09:25:49.895Z,22.00
2022-08-24T09:28:35.583Z,21.10
2022-08-24T09:34:20.121Z,21.90
2022-08-24T09:37:05.126Z,22.10
2022-08-24T09:39:50.976Z,22.60
2022-08-24T09:42:47.789Z,22.80
2022-08-24T09:45:45.750Z,22.10
2022-08-24T09:48:16.339Z,22.00
2022-08-24T09:51:02.544Z,21.70
2022-08-24T09:53:55.320Z,21.80
2022-08-24T09:56:49.787Z,21.80
2022-08-24T09:59:40.650Z,22.40
2022-08-24T10:02:20.281Z,22.30
2022-08-24T10:05:22.191Z,22.60
2022-08-24T10:08:14.403Z,22.60
2022-08-24T10:11:19.016Z,22.80
2022-08-24T10:14:03.726Z,24.00
2022-08-24T10:16:47.683Z,23.20
2022-08-24T10:19:36.922Z,23.70
2022-08-24T10:22:22.523Z,23.80
2022-08-24T10:25:17.642Z,23.40
2022-08-24T10:27:53.911Z,22.90
2022-08-24T10:30:40.617Z,23.20
2022-08-24T10:33:21.396Z,23.70
2022-08-24T10:36:13.376Z,22.70
2022-08-24T10:39:33.956Z,23.30
2022-08-24T10:42:42.335Z,22.90
2022-08-24T10:45:33.889Z,23.50
2022-08-24T10:48:33.335Z,24.30
2022-08-24T10:51:13.630Z,23.10
2022-08-24T10:53:41.311Z,23.20
2022-08-24T10:56:15.669Z,23.50
2022-08-24T10:58:59.753Z,23.50
2022-08-24T11:01:33.923Z,23.00
2022-08-24T11:04:14.114Z,23.10
2022-08-24T11:07:03.889Z,22.60
2022-08-24T11:09:46.815Z,22.90
2022-08-24T11:12:32.161Z,22.70
2022-08-24T11:15:02.545Z,22.30
2022-08-24T11:17:32.147Z,22.90
2022-08-24T11:19:59.661Z,23.30
2022-08-24T11:23:16.984Z,23.30
2022-08-24T11:26:12.996Z,23.00
2022-08-24T11:28:41.629Z,23.40
2022-08-24T11:31:36.055Z,23.20
2022-08-24T11:34:09.884Z,23.40
2022-08-24T11:36:39.003Z,23.10
2022-08-24T11:39:18.200Z,23.00
2022-08-24T11:42:11.547Z,22.40
2022-08-24T11:45:04.022Z,22.90
2022-08-24T11:47:48.822Z,23.20
2022-08-24T11:50:30.196Z,23.20
2022-08-24T11:53:25.178Z,23.50
2022-08-24T11:56:03.546Z,23.70
2022-08-24T11:58:59.750Z,24.80
2022-08-24T12:01:51.617Z,24.30
2022-08-24T12:04:24.587Z,23.60
2022-08-24T12:07:09.672Z,23.70
2022-08-24T12:10:04.156Z,24.40
2022-08-24T12:12:36.851Z,24.90
2022-08-24T12:15:16.230Z,24.50
2022-08-24T12:17:55.966Z,23.90
2022-08-24T12:20:34.120Z,23.90
2022-08-24T12:23:08.677Z,24.10
2022-08-24T12:25:55.239Z,23.50
2022-08-24T12:28:30.661Z,24.00
2022-08-24T12:31:03.472Z,24.40
2022-08-24T12:33:36.487Z,23.20
2022-08-24T12:36:25.529Z,23.70
2022-08-24T12:39:07.199Z,24.00
2022-08-24T12:41:42.185Z,24.20
2022-08-24T12:44:15.890Z,24.40
2022-08-24T12:46:44.773Z,25.60
2022-08-24T12:49:27.892Z,25.00
2022-08-24T12:51:57.935Z,24.90
2022-08-24T12:54:47.559Z,23.90
2022-08-24T12:57:35.465Z,24.30
2022-08-24T13:00:10.020Z,23.90
2022-08-24T13:02:47.655Z,24.30
2022-08-24T13:05:20.303Z,24.70
2022-08-24T13:07:50.028Z,24.50
2022-08-24T13:10:23.645Z,24.60
2022-08-24T13:13:13.193Z,24.90
2022-08-24T13:15:51.612Z,24.30
2022-08-24T13:18:18.577Z,24.60
2022-08-24T13:20:46.453Z,25.10
2022-08-24T13:23:13.552Z,24.20
2022-08-24T13:26:08.125Z,24.60
2022-08-24T13:29:02.866Z,23.70
2022-08-24T13:31:34.346Z,23.80
2022-08-24T13:34:04.619Z,24.90
2022-08-24T13:36:31.865Z,23.90
2022-08-24T13:39:19.946Z,24.20
2022-08-24T13:41:55.248Z,24.20
2022-08-24T13:44:41.532Z,25.00
2022-08-24T13:47:11.340Z,25.10
2022-08-24T13:50:02.179Z,25.40
2022-08-24T13:52:56.887Z,25.60
2022-08-24T13:55:39.429Z,25.50
2022-08-24T13:58:13.390Z,24.00
2022-08-24T14:00:44.223Z,24.30
2022-08-24T14:03:22.997Z,24.70
2022-08-24T14:06:01.962Z,25.10
2022-08-24T14:08:55.573Z,25.50
2022-08-24T14:11:25.774Z,25.50
2022-08-24T14:14:01.376Z,24.10
2022-08-24T14:17:35.556Z,24.00
2022-08-24T14:20:22.306Z,24.50
2022-08-24T14:23:07.522Z,24.30
2022-08-24T14:25:37.597Z,25.00
2022-08-24T14:28:36.148Z,24.40
2022-08-24T14:31:21.971Z,24.40
2022-08-24T14:34:11.094Z,24.10
2022-08-24T14:37:02.477Z,24.10
2022-08-24T14:39:51.326Z,24.30
2022-08-24T14:42:39.861Z,24.30
2022-08-24T14:45:10.846Z,24.00
2022-08-24T14:47:37.833Z,23.80
2022-08-24T14:50:17.456Z,23.40
2022-08-24T14:52:54.955Z,23.90
2022-08-24T14:55:41.104Z,23.70
2022-08-24T14:58:09.610Z,23.90
2022-08-24T15:01:08.018Z,24.00
2022-08-24T15:03:35.177Z,24.20
2022-08-24T15:06:26.784Z,24.60
2022-08-24T15:09:08.441Z,24.10
2022-08-24T15:11:38.354Z,23.90
2022-08-24T15:14:09.602Z,24.00
2022-08-24T15:16:49.065Z,24.10
2022-08-24T15:19:41.300Z,23.90
2022-08-24T15:22:15.394Z,23.80
2022-08-24T15:24:58.837Z,23.40
2022-08-24T15:27:57.214Z,23.60
2022-08-24T15:30:24.366Z,23.90
2022-08-24T15:33:01.367Z,24.10
2022-08-24T15:35:34.940Z,24.10
2022-08-24T15:38:19.744Z,23.60
2022-08-24T15:40:49.082Z,23.80
2022-08-24T15:43:17.566Z,24.50
2022-08-24T15:45:49.867Z,24.50
2022-08-24T15:48:20.375Z,23.90
2022-08-24T15:50:48.947Z,23.40
2022-08-24T15:53:32.400Z,23.50
2022-08-24T15:56:13.548Z,23.40
2022-08-24T15:58:40.805Z,23.50
2022-08-24T16:01:29.109Z,23.50
2022-08-24T16:04:06.021Z,23.30
2022-08-24T16:06:33.076Z,23.20
2022-08-24T16:09:24.317Z,23.20
2022-08-24T16:12:21.087Z,23.10
2022-08-24T16:14:53.676Z,23.30
2022-08-24T16:17:28.212Z,22.90
2022-08-24T16:19:58.612Z,22.70
2022-08-24T16:22:26.916Z,22.70
2022-08-24T16:25:09.596Z,22.40
2022-08-24T16:28:03.421Z,22.40
2022-08-24T16:30:55.095Z,22.40
2022-08-24T16:33:43.374Z,22.50
2022-08-24T16:36:15.108Z,22.50
2022-08-24T16:38:49.485Z,22.30
2022-08-24T16:41:22.371Z,22.40
2022-08-24T16:43:49.746Z,22.10
2022-08-24T16:46:23.679Z,22.30
2022-08-24T16:48:54.300Z,22.30
2022-08-24T16:51:24.867Z,22.40
2022-08-24T16:53:52.363Z,22.20
2022-08-24T16:56:20.662Z,22.10
2022-08-24T16:58:48.596Z,22.20
2022-08-24T17:01:16.061Z,22.10
2022-08-24T17:03:43.257Z,21.60
2022-08-24T17:06:12.671Z,21.40
2022-08-24T17:08:40.805Z,21.40
2022-08-24T17:11:08.444Z,21.50
2022-08-24T17:13:51.058Z,21.40
2022-08-24T17:16:19.925Z,21.40
2022-08-24T17:18:47.150Z,21.20
2022-08-24T17:21:14.208Z,21.10
2022-08-24T17:23:42.446Z,21.10
2022-08-24T17:26:20.325Z,21.10
2022-08-24T17:28:48.280Z,21.20
2022-08-24T17:31:16.087Z,21.10
2022-08-24T17:33:43.121Z,21.20
2022-08-24T17:36:15.494Z,21.20
2022-08-24T17:38:46.297Z,21.00
2022-08-24T17:41:14.709Z,21.00
2022-08-24T17:43:46.038Z,20.80
2022-08-24T17:46:15.242Z,20.80
2022-08-24T17:48:46.434Z,20.80
2022-08-24T17:51:13.709Z,20.70
2022-08-24T17:53:41.369Z,20.60
2022-08-24T17:56:09.434Z,20.70
2022-08-24T17:58:56.689Z,20.60
2022-08-24T18:01:24.900Z,20.50
2022-08-24T18:03:52.751Z,20.40
2022-08-24T18:06:24.047Z,20.50
2022-08-24T18:08:53.034Z,20.50
2022-08-24T18:11:25.252Z,20.30
2022-08-24T18:13:54.626Z,20.40
2022-08-24T18:16:23.669Z,20.40
2022-08-24T18:18:52.491Z,20.20
2022-08-24T18:21:20.365Z,20.20
2022-08-24T18:23:51.062Z,20.30
2022-08-24T18:26:28.492Z,20.30
2022-08-24T18:29:03.130Z,20.40
2022-08-24T18:31:32.017Z,20.30
2022-08-24T18:33:59.051Z,20.20
2022-08-24T18:36:26.158Z,20.20
2022-08-24T18:38:53.854Z,20.10
2022-08-24T18:41:21.336Z,20.00
2022-08-24T18:43:48.930Z,20.00
2022-08-24T18:46:16.150Z,19.90
2022-08-24T18:48:43.326Z,20.00
2022-08-24T18:51:12.105Z,19.90
2022-08-24T18:53:39.340Z,19.90
2022-08-24T18:56:10.616Z,20.00
2022-08-24T18:58:40.092Z,19.90
2022-08-24T19:01:07.390Z,19.90
2022-08-24T19:03:35.191Z,19.80
2022-08-24T19:06:03.573Z,19.70
2022-08-24T19:08:30.687Z,19.60
2022-08-24T19:10:57.672Z,19.70
2022-08-24T19:13:24.694Z,19.50
2022-08-24T19:15:52.855Z,19.40
2022-08-24T19:18:21.701Z,19.30
2022-08-24T19:20:52.319Z,19.40
2022-08-24T19:23:30.154Z,19.40
2022-08-24T19:25:57.726Z,19.30
2022-08-24T19:28:26.535Z,19.30
2022-08-24T19:30:59.046Z,19.20
2022-08-24T19:33:29.356Z,19.20
2022-08-24T19:35:59.593Z,19.30
2022-08-24T19:38:27.085Z,19.30
2022-08-24T19:40:55.585Z,19.30
2022-08-24T19:43:26.581Z,19.10
2022-08-24T19:46:08.823Z,19.00
2022-08-24T19:48:39.715Z,18.90
2022-08-24T19:51:14.149Z,18.80
2022-08-24T19:53:43.947Z,18.80
2022-08-24T19:56:11.675Z,18.70
2022-08-24T19:58:52.550Z,18.60
2022-08-24T20:01:23.974Z,18.50
2022-08-24T20:03:51.702Z,18.50
2022-08-24T20:06:24.020Z,18.40
2022-08-24T20:08:52.358Z,18.50
2022-08-24T20:11:19.960Z,18.50
2022-08-24T20:13:50.281Z,18.40
2022-08-24T20:16:19.721Z,18.40
2022-08-24T20:18:47.397Z,18.40
2022-08-24T20:21:16.152Z,18.20
2022-08-24T20:23:44.338Z,18.30
2022-08-24T20:26:13.615Z,18.30
2022-08-24T20:28:46.358Z,18.10
2022-08-24T20:31:13.964Z,18.10
2022-08-24T20:33:41.282Z,18.10
2022-08-24T20:36:24.449Z,18.00
2022-08-24T20:38:52.214Z,18.00
2022-08-24T20:41:19.164Z,17.90
2022-08-24T20:43:46.268Z,17.90
2022-08-24T20:46:16.416Z,17.80
2022-08-24T20:48:43.848Z,17.80
2022-08-24T20:51:11.074Z,17.80
2022-08-24T20:53:38.127Z,17.80
2022-08-24T20:56:14.970Z,17.80
2022-08-24T20:58:42.193Z,17.70
2022-08-24T21:01:09.381Z,17.80
2022-08-24T21:03:37.015Z,17.70
2022-08-24T21:06:05.106Z,17.60
2022-08-24T21:08:32.406Z,17.60
2022-08-24T21:10:59.480Z,17.60
2022-08-24T21:13:26.443Z,17.50
2022-08-24T21:15:53.423Z,17.50
2022-08-24T21:18:20.994Z,17.50
2022-08-24T21:21:04.157Z,17.40
2022-08-24T21:23:33.672Z,17.40
2022-08-24T21:26:06.570Z,17.30
2022-08-24T21:28:35.910Z,17.40
2022-08-24T21:31:06.076Z,17.20
2022-08-24T21:33:52.717Z,17.20
2022-08-24T21:36:23.908Z,17.10
2022-08-24T21:38:53.523Z,17.10
2022-08-24T21:41:21.981Z,17.10
2022-08-24T21:43:49.045Z,17.00
2022-08-24T21:46:17.239Z,17.00
2022-08-24T21:48:44.263Z,17.00
2022-08-24T21:51:11.189Z,17.00
2022-08-24T21:53:38.227Z,16.90
2022-08-24T21:56:05.527Z,16.90
2022-08-24T21:58:32.519Z,17.00
2022-08-24T22:01:00.754Z,17.00
2022-08-24T22:03:36.910Z,17.00
2022-08-24T22:06:08.649Z,17.10
2022-08-24T22:08:37.485Z,17.20
2022-08-24T22:11:05.226Z,17.00
2022-08-24T22:13:32.540Z,17.10
2022-08-24T22:16:00.603Z,17.00
2022-08-24T22:18:27.566Z,16.90
2022-08-24T22:20:54.677Z,16.90
2022-08-24T22:23:24.275Z,16.90
2022-08-24T22:25:52.710Z,17.00
2022-08-24T22:28:20.136Z,17.00
2022-08-24T22:30:48.704Z,16.90
2022-08-24T22:33:16.321Z,16.80
2022-08-24T22:35:44.966Z,16.70
2022-08-24T22:38:12.549Z,16.60
2022-08-24T22:40:39.621Z,16.60
2022-08-24T22:43:06.695Z,16.60
2022-08-24T22:45:33.783Z,16.60
2022-08-24T22:48:00.734Z,16.60
2022-08-24T22:50:27.826Z,16.50
2022-08-24T22:52:54.941Z,16.50
2022-08-24T22:55:23.405Z,16.50
2022-08-24T22:57:53.946Z,16.40
2022-08-24T23:00:21.159Z,16.40
2022-08-24T23:02:48.620Z,16.40
2022-08-24T23:05:15.575Z,16.50
2022-08-24T23:07:42.626Z,16.60
2022-08-24T23:10:10.288Z,16.60
2022-08-24T23:12:37.286Z,16.50
2022-08-24T23:15:04.636Z,16.50
2022-08-24T23:17:31.599Z,16.30
2022-08-24T23:20:01.665Z,16.40
2022-08-24T23:22:36.798Z,16.30
2022-08-24T23:25:06.166Z,16.30
2022-08-24T23:27:38.566Z,16.30
2022-08-24T23:30:12.688Z,16.30
2022-08-24T23:32:39.855Z,16.30
2022-08-24T23:35:07.257Z,16.50
2022-08-24T23:37:34.336Z,16.40
2022-08-24T23:40:01.392Z,16.30
2022-08-24T23:42:28.467Z,16.20
2022-08-24T23:44:57.997Z,16.30
2022-08-24T23:47:25.049Z,16.30
2022-08-24T23:49:52.193Z,16.20
2022-08-24T23:52:26.890Z,16.20
2022-08-24T23:55:19.940Z,16.20
2022-08-24T23:57:46.874Z,16.10
